Time;durP1;ratioP1;P1;durP2;ratioP2;P2;SDS_P1;SDS_P2;PMS_P1;PMS_P2;Temp;Humidity;BMP_temperature;BMP_pressure;BME280_temperature;BME280_humidity;BME280_pressure;Samples;Min_cycle;Max_cycle;Signal;HPM_P1;HPM_P2
2023/08/07 00:01:33;;;;;;;5.40;2.20;;;14.00;99.90;;;;;;5113939;28;20705;-70
2023/08/07 00:03:59;;;;;;;5.63;2.43;;;14.00;99.90;;;;;;5114027;28;20251;-70
2023/08/07 00:06:24;;;;;;;3.07;2.10;;;13.90;99.90;;;;;;5096666;28;20220;-70
2023/08/07 00:08:51;;;;;;;13.73;2.50;;;13.90;99.90;;;;;;5104086;28;20173;-69
2023/08/07 00:11:16;;;;;;;6.50;2.27;;;13.80;99.90;;;;;;5113540;28;20177;-68
2023/08/07 00:13:42;;;;;;;7.73;2.53;;;13.80;99.90;;;;;;5113831;28;20432;-69
2023/08/07 00:16:07;;;;;;;3.70;2.33;;;13.80;99.90;;;;;;5113232;28;20517;-69
2023/08/07 00:18:33;;;;;;;4.47;2.63;;;13.80;99.90;;;;;;5095325;28;20785;-69
2023/08/07 00:21:00;;;;;;;8.00;3.03;;;13.70;99.90;;;;;;5095148;28;20261;-69
2023/08/07 00:23:25;;;;;;;8.20;2.40;;;13.70;99.90;;;;;;5094202;28;20670;-69
2023/08/07 00:25:51;;;;;;;5.93;2.43;;;13.70;99.90;;;;;;5086245;28;20431;-70
2023/08/07 00:28:16;;;;;;;12.87;2.53;;;13.70;99.90;;;;;;5089103;28;20226;-69
2023/08/07 00:30:42;;;;;;;7.40;2.60;;;13.70;99.90;;;;;;5094977;28;20716;-69
2023/08/07 00:33:07;;;;;;;6.37;2.40;;;13.70;99.90;;;;;;5089695;28;20237;-70
2023/08/07 00:35:32;;;;;;;8.97;2.53;;;13.70;99.90;;;;;;5082584;28;20208;-69
2023/08/07 00:37:58;;;;;;;3.43;2.33;;;13.60;99.90;;;;;;5092661;28;20541;-70
2023/08/07 00:40:23;;;;;;;10.60;4.07;;;13.60;99.90;;;;;;5092622;28;20189;-69
2023/08/07 00:42:49;;;;;;;13.33;2.57;;;13.60;99.90;;;;;;5091811;28;20188;-70
2023/08/07 00:45:14;;;;;;;8.13;2.53;;;13.60;99.90;;;;;;5092517;28;20169;-70
2023/08/07 00:47:41;;;;;;;7.60;3.10;;;13.60;99.90;;;;;;5089443;28;20248;-70
2023/08/07 00:50:07;;;;;;;11.10;2.60;;;13.50;99.90;;;;;;5096796;28;20177;-70
2023/08/07 00:52:33;;;;;;;8.03;2.30;;;13.50;99.90;;;;;;5100104;28;20435;-70
2023/08/07 00:54:59;;;;;;;5.43;2.80;;;13.50;99.90;;;;;;5104133;28;20491;-69
2023/08/07 00:57:25;;;;;;;10.73;2.87;;;13.50;99.90;;;;;;5112695;28;20526;-69
2023/08/07 00:59:51;;;;;;;6.90;3.03;;;13.50;99.90;;;;;;5112675;28;20165;-70
2023/08/07 01:02:17;;;;;;;15.53;4.67;;;13.50;99.90;;;;;;5104116;28;20430;-69
2023/08/07 01:04:42;;;;;;;17.20;3.50;;;13.50;99.90;;;;;;5091343;28;20513;-69
2023/08/07 01:07:08;;;;;;;4.90;3.33;;;13.40;99.90;;;;;;5105546;28;20665;-69
2023/08/07 01:09:34;;;;;;;4.57;2.40;;;13.40;99.90;;;;;;5112940;28;20180;-69
2023/08/07 01:11:59;;;;;;;7.40;3.03;;;13.40;99.90;;;;;;5094894;28;20586;-70
2023/08/07 01:14:41;;;;;;;7.17;2.27;;;13.40;99.90;;;;;;5109048;28;20189;-70
2023/08/07 01:17:14;;;;;;;17.30;3.17;;;13.40;99.90;;;;;;5076387;28;20162;-69
2023/08/07 01:19:41;;;;;;;10.33;4.87;;;13.50;99.90;;;;;;5092044;28;20383;-69
2023/08/07 01:22:10;;;;;;;2.80;2.10;;;13.50;99.90;;;;;;5091402;28;20423;-70
2023/08/07 01:24:37;;;;;;;11.60;2.50;;;13.50;99.90;;;;;;5101007;28;20464;-70
2023/08/07 01:27:17;;;;;;;5.33;3.07;;;13.60;99.90;;;;;;5112318;28;20394;-70
2023/08/07 01:29:57;;;;;;;26.27;11.20;;;13.60;99.90;;;;;;5100177;28;20423;-69
2023/08/07 01:32:39;;;;;;;9.77;2.60;;;13.60;99.90;;;;;;5084849;28;20903;-70
2023/08/07 01:35:06;;;;;;;11.50;2.37;;;13.70;99.90;;;;;;5119213;28;20446;-70
2023/08/07 01:37:38;;;;;;;8.60;2.37;;;13.70;99.90;;;;;;5100961;28;20403;-69
2023/08/07 01:40:05;;;;;;;11.23;2.90;;;13.70;99.90;;;;;;5119147;28;20414;-70
2023/08/07 01:42:32;;;;;;;10.70;3.50;;;13.70;99.90;;;;;;5119002;28;20446;-70
2023/08/07 01:44:57;;;;;;;8.00;2.30;;;13.70;99.90;;;;;;5119368;28;20458;-70
2023/08/07 01:47:23;;;;;;;6.63;2.90;;;13.80;99.90;;;;;;5077345;28;20939;-70
2023/08/07 01:49:48;;;;;;;7.27;1.90;;;13.70;99.90;;;;;;5117688;28;20168;-70
2023/08/07 01:52:14;;;;;;;5.17;2.13;;;13.80;99.90;;;;;;5119369;28;20173;-70
2023/08/07 01:54:39;;;;;;;8.27;2.57;;;13.80;99.90;;;;;;5119124;28;20196;-70
2023/08/07 01:57:05;;;;;;;7.27;2.30;;;13.80;99.90;;;;;;5118747;28;20204;-71
2023/08/07 01:59:31;;;;;;;7.10;2.47;;;13.70;99.90;;;;;;5100568;28;20256;-70
2023/08/07 02:01:56;;;;;;;10.97;2.80;;;13.70;99.90;;;;;;5093052;28;20193;-69
2023/08/07 02:04:22;;;;;;;6.90;2.40;;;13.80;99.90;;;;;;5092259;28;20157;-70
2023/08/07 02:06:47;;;;;;;14.97;2.43;;;13.80;99.90;;;;;;5098284;28;20562;-69
2023/08/07 02:09:13;;;;;;;6.67;2.40;;;13.80;99.90;;;;;;5098526;28;20540;-69
2023/08/07 02:11:38;;;;;;;3.30;1.80;;;13.80;99.90;;;;;;5098295;28;20232;-71
2023/08/07 02:14:04;;;;;;;6.63;2.83;;;13.80;99.90;;;;;;5080049;28;20201;-70
2023/08/07 02:16:29;;;;;;;12.00;2.80;;;13.80;99.90;;;;;;5098131;28;20252;-68
2023/08/07 02:18:56;;;;;;;7.27;2.17;;;13.90;99.90;;;;;;5079386;28;20196;-69
2023/08/07 02:21:21;;;;;;;15.07;6.80;;;13.90;99.90;;;;;;5086656;28;20501;-68
2023/08/07 02:23:47;;;;;;;5.33;2.67;;;13.90;99.90;;;;;;5118794;28;20171;-69
2023/08/07 02:26:13;;;;;;;5.50;2.50;;;13.90;99.90;;;;;;5118080;28;20165;-69
2023/08/07 02:28:38;;;;;;;6.73;2.60;;;14.00;99.90;;;;;;5118555;28;20194;-70
2023/08/07 02:31:04;;;;;;;4.87;2.20;;;14.00;99.90;;;;;;5100391;28;20418;-70
2023/08/07 02:33:30;;;;;;;5.33;3.10;;;14.00;99.90;;;;;;5093654;28;20181;-69
2023/08/07 02:35:56;;;;;;;6.30;2.13;;;14.00;99.90;;;;;;5100843;28;20271;-69
2023/08/07 02:38:22;;;;;;;8.40;2.70;;;14.00;99.90;;;;;;5111546;28;20428;-69
2023/08/07 02:40:47;;;;;;;8.67;2.70;;;14.00;99.90;;;;;;5080385;28;20439;-69
2023/08/07 02:43:13;;;;;;;7.20;2.67;;;14.10;99.90;;;;;;5114572;28;20165;-69
2023/08/07 02:45:38;;;;;;;3.17;2.00;;;14.10;99.90;;;;;;5096842;28;20176;-69
2023/08/07 02:48:04;;;;;;;4.90;2.67;;;14.10;99.90;;;;;;5097239;28;20169;-69
2023/08/07 02:50:32;;;;;;;4.43;2.27;;;14.00;99.90;;;;;;5115150;28;20574;-69
2023/08/07 02:52:58;;;;;;;8.57;3.00;;;14.00;99.90;;;;;;5090976;28;20643;-70
2023/08/07 02:55:23;;;;;;;9.47;2.60;;;14.00;99.90;;;;;;5088424;28;20588;-70
2023/08/07 02:57:49;;;;;;;4.53;2.20;;;13.90;99.90;;;;;;5115107;28;20455;-68
2023/08/07 03:00:15;;;;;;;6.93;2.20;;;13.90;99.90;;;;;;5115084;28;20193;-70
2023/08/07 03:02:40;;;;;;;5.33;3.70;;;13.90;99.90;;;;;;5102365;28;20187;-70
2023/08/07 03:05:06;;;;;;;5.43;2.40;;;13.90;99.90;;;;;;5107111;28;20172;-70
2023/08/07 03:07:32;;;;;;;6.93;2.30;;;13.90;99.90;;;;;;5096604;28;20241;-70
2023/08/07 03:09:57;;;;;;;7.93;2.23;;;13.90;99.90;;;;;;5072719;28;20452;-70
2023/08/07 03:12:23;;;;;;;4.87;2.60;;;13.90;99.90;;;;;;5089782;28;20177;-70
2023/08/07 03:14:48;;;;;;;6.63;2.77;;;13.90;99.90;;;;;;5113298;28;20207;-70
2023/08/07 03:17:14;;;;;;;3.50;1.97;;;13.90;99.90;;;;;;5114900;28;20165;-70
2023/08/07 03:19:42;;;;;;;8.83;2.37;;;13.80;99.90;;;;;;5114791;28;20172;-70
2023/08/07 03:22:08;;;;;;;4.80;2.43;;;13.80;99.90;;;;;;5114847;28;20197;-69
2023/08/07 03:24:33;;;;;;;3.40;2.10;;;13.80;99.90;;;;;;5114514;28;20826;-68
2023/08/07 03:26:59;;;;;;;3.23;1.73;;;13.70;99.90;;;;;;5071736;28;20575;-68
2023/08/07 03:29:24;;;;;;;3.47;2.13;;;13.70;99.90;;;;;;5089376;28;20185;-68
2023/08/07 03:31:50;;;;;;;5.63;2.40;;;13.70;99.90;;;;;;5093846;28;20384;-68
2023/08/07 03:34:15;;;;;;;6.30;2.80;;;13.70;99.90;;;;;;5075872;28;20255;-70
2023/08/07 03:36:41;;;;;;;5.17;3.03;;;13.70;99.90;;;;;;5093648;28;20169;-70
2023/08/07 03:39:07;;;;;;;4.63;2.70;;;13.70;99.90;;;;;;5094121;28;20170;-69
2023/08/07 03:41:33;;;;;;;7.47;2.60;;;13.70;99.90;;;;;;5094169;28;20185;-68
2023/08/07 03:43:59;;;;;;;5.13;2.07;;;13.70;99.90;;;;;;5088718;28;20505;-69
2023/08/07 03:46:24;;;;;;;7.23;2.27;;;13.70;99.90;;;;;;5109186;28;20204;-70
2023/08/07 03:48:50;;;;;;;6.00;2.97;;;13.70;99.90;;;;;;5114282;28;20203;-69
2023/08/07 03:51:16;;;;;;;6.50;2.90;;;13.70;99.90;;;;;;5096061;28;20192;-69
2023/08/07 03:53:42;;;;;;;3.10;2.20;;;13.70;99.90;;;;;;5113720;28;20157;-69
2023/08/07 03:56:08;;;;;;;13.60;2.70;;;13.70;99.90;;;;;;5113646;28;20807;-69
2023/08/07 03:58:33;;;;;;;3.77;1.93;;;13.60;99.90;;;;;;5106861;28;20447;-69
2023/08/07 04:00:59;;;;;;;3.00;1.70;;;13.60;99.90;;;;;;5083742;28;20693;-70
2023/08/07 04:03:24;;;;;;;6.20;2.47;;;13.60;99.90;;;;;;5088904;28;20630;-70
2023/08/07 04:05:54;;;;;;;5.30;2.10;;;13.50;99.90;;;;;;5112875;28;20695;-69
2023/08/07 04:08:20;;;;;;;6.83;2.57;;;13.50;99.90;;;;;;5113945;28;20649;-70
2023/08/07 04:11:01;;;;;;;5.60;2.87;;;13.50;99.90;;;;;;5095785;28;20427;-69
2023/08/07 04:13:27;;;;;;;6.50;2.37;;;13.50;99.90;;;;;;5113989;28;20407;-70
2023/08/07 04:15:53;;;;;;;4.03;2.87;;;13.50;99.90;;;;;;5105067;28;20464;-69
2023/08/07 04:18:18;;;;;;;3.77;2.30;;;13.50;99.90;;;;;;5092747;28;20438;-69
2023/08/07 04:20:52;;;;;;;3.23;1.90;;;13.50;99.90;;;;;;5111501;28;20250;-69
2023/08/07 04:23:18;;;;;;;4.23;2.50;;;13.50;99.90;;;;;;5114114;28;20165;-69
2023/08/07 04:25:44;;;;;;;4.80;2.07;;;13.40;99.90;;;;;;5113545;28;20437;-69
2023/08/07 04:28:09;;;;;;;8.03;2.33;;;13.40;99.90;;;;;;5113842;28;20600;-69
2023/08/07 04:30:35;;;;;;;3.57;3.07;;;13.40;99.90;;;;;;5113461;28;20484;-68
2023/08/07 04:33:00;;;;;;;11.13;5.57;;;13.50;99.90;;;;;;5086970;28;20858;-69
2023/08/07 04:35:26;;;;;;;3.57;2.33;;;13.50;99.90;;;;;;5104858;28;20196;-69
2023/08/07 04:37:52;;;;;;;6.03;2.70;;;13.50;99.90;;;;;;5112287;28;20214;-69
2023/08/07 04:40:17;;;;;;;4.07;3.13;;;13.50;99.90;;;;;;5092020;28;20557;-71
2023/08/07 04:42:42;;;;;;;4.80;2.67;;;13.50;99.90;;;;;;5111138;28;20183;-70
2023/08/07 04:45:09;;;;;;;4.20;2.70;;;13.50;99.90;;;;;;5090864;28;20177;-69
2023/08/07 04:47:35;;;;;;;5.10;3.37;;;13.50;99.90;;;;;;5093119;28;20165;-69
2023/08/07 04:50:01;;;;;;;5.07;2.73;;;13.60;99.90;;;;;;5073255;28;20459;-70
2023/08/07 04:52:27;;;;;;;9.80;3.60;;;13.60;99.90;;;;;;5108702;28;20956;-70
2023/08/07 04:54:52;;;;;;;5.17;2.50;;;13.60;99.90;;;;;;5112900;28;20770;-70
2023/08/07 04:57:18;;;;;;;12.00;2.67;;;13.60;99.90;;;;;;5112879;28;20434;-70
2023/08/07 04:59:43;;;;;;;3.17;2.23;;;13.60;99.90;;;;;;5095037;28;20247;-70
2023/08/07 05:02:09;;;;;;;7.40;3.20;;;13.60;99.90;;;;;;5095463;28;20570;-70
2023/08/07 05:04:34;;;;;;;25.00;12.80;;;13.70;99.90;;;;;;5112825;28;20248;-69
2023/08/07 05:07:00;;;;;;;2.60;2.40;;;13.70;99.90;;;;;;5092906;28;20268;-69
2023/08/07 05:09:25;;;;;;;4.43;2.30;;;13.70;99.90;;;;;;5108313;28;20511;-69
2023/08/07 05:11:51;;;;;;;2.93;2.10;;;13.70;99.90;;;;;;5112684;28;20193;-70
2023/08/07 05:14:16;;;;;;;11.07;2.27;;;13.80;99.90;;;;;;5113216;28;20201;-70
2023/08/07 05:16:42;;;;;;;5.90;2.50;;;13.80;99.90;;;;;;5112791;28;20261;-70
2023/08/07 05:19:07;;;;;;;3.43;2.27;;;14.00;99.90;;;;;;5094649;28;20206;-70
2023/08/07 05:21:33;;;;;;;3.57;2.53;;;14.00;99.90;;;;;;5087569;28;20690;-70
2023/08/07 05:23:58;;;;;;;10.60;2.77;;;14.10;99.90;;;;;;5095462;28;20165;-70
2023/08/07 05:26:24;;;;;;;5.10;4.60;;;14.10;99.90;;;;;;5080387;28;20164;-70
2023/08/07 05:28:49;;;;;;;5.30;2.17;;;14.10;99.90;;;;;;5112695;28;20252;-70
2023/08/07 05:31:15;;;;;;;7.27;3.23;;;14.10;99.90;;;;;;5112522;28;20188;-70
2023/08/07 05:33:40;;;;;;;3.50;2.33;;;14.00;99.90;;;;;;5112675;28;20169;-69
2023/08/07 05:36:06;;;;;;;12.27;2.97;;;14.10;99.90;;;;;;5112594;28;20193;-69
2023/08/07 05:38:32;;;;;;;5.70;2.10;;;14.10;99.90;;;;;;5102703;28;20252;-70
2023/08/07 05:40:57;;;;;;;6.57;3.03;;;14.10;99.90;;;;;;5091331;28;20181;-70
2023/08/07 05:43:23;;;;;;;4.57;2.13;;;14.10;99.90;;;;;;5107653;28;20169;-70
2023/08/07 05:45:49;;;;;;;5.50;1.97;;;14.20;99.90;;;;;;5094228;28;20172;-69
2023/08/07 05:48:16;;;;;;;6.13;2.90;;;14.20;99.90;;;;;;5112527;28;20634;-69
2023/08/07 05:50:42;;;;;;;8.90;6.50;;;14.20;99.90;;;;;;5112419;28;20188;-69
2023/08/07 05:53:07;;;;;;;3.20;1.73;;;14.30;99.90;;;;;;5112435;28;20395;-69
2023/08/07 05:55:34;;;;;;;4.20;2.57;;;14.30;99.90;;;;;;5102162;28;20551;-70
2023/08/07 05:57:59;;;;;;;5.27;2.33;;;14.30;99.90;;;;;;5082102;28;20169;-70
2023/08/07 06:00:25;;;;;;;5.60;1.90;;;14.30;99.90;;;;;;5091721;28;20947;-70
2023/08/07 06:02:50;;;;;;;4.47;2.40;;;14.30;99.90;;;;;;5091945;28;20608;-69
2023/08/07 06:05:16;;;;;;;4.40;1.97;;;14.30;99.90;;;;;;5073453;28;20169;-69
2023/08/07 06:07:42;;;;;;;3.20;2.47;;;14.30;99.90;;;;;;5091695;28;20546;-70
2023/08/07 06:10:08;;;;;;;4.57;2.00;;;14.30;99.90;;;;;;5091971;28;20600;-69
2023/08/07 06:12:33;;;;;;;3.60;2.20;;;14.30;99.90;;;;;;5087145;28;20189;-70
2023/08/07 06:14:59;;;;;;;4.57;2.17;;;14.30;99.90;;;;;;5067296;28;20561;-70
2023/08/07 06:17:24;;;;;;;8.33;2.97;;;14.20;99.90;;;;;;5109561;28;20173;-69
2023/08/07 06:19:50;;;;;;;8.10;2.87;;;14.20;99.90;;;;;;5098000;28;20162;-69
2023/08/07 06:22:15;;;;;;;2.90;2.20;;;14.20;99.90;;;;;;5116142;28;20168;-70
2023/08/07 06:24:41;;;;;;;3.40;2.20;;;14.10;99.90;;;;;;5116291;28;20564;-70
2023/08/07 06:27:06;;;;;;;2.70;1.70;;;14.10;99.90;;;;;;5099691;28;20166;-70
2023/08/07 06:29:32;;;;;;;6.27;2.80;;;14.10;99.90;;;;;;5103553;28;20256;-69
2023/08/07 06:31:57;;;;;;;3.20;1.97;;;14.20;99.90;;;;;;5115938;28;20188;-70
2023/08/07 06:34:23;;;;;;;4.00;2.00;;;14.20;99.90;;;;;;5097099;28;20204;-70
2023/08/07 06:36:49;;;;;;;11.57;2.40;;;14.20;99.90;;;;;;5115545;28;20161;-70
2023/08/07 06:39:14;;;;;;;8.00;2.50;;;14.20;99.90;;;;;;5115587;28;20177;-70
2023/08/07 06:41:40;;;;;;;4.30;2.07;;;14.20;99.90;;;;;;5089349;28;20493;-69
2023/08/07 06:44:05;;;;;;;10.97;2.60;;;14.20;99.90;;;;;;5108148;28;20661;-70
2023/08/07 06:46:31;;;;;;;2.80;1.70;;;14.20;99.90;;;;;;5115389;28;20264;-69
2023/08/07 06:48:56;;;;;;;4.73;2.40;;;14.20;99.90;;;;;;5115582;28;20169;-69
2023/08/07 06:51:22;;;;;;;4.57;2.83;;;14.30;99.90;;;;;;5115533;28;20230;-69
2023/08/07 06:53:48;;;;;;;8.30;2.17;;;14.30;99.90;;;;;;5115638;28;20206;-69
2023/08/07 06:56:13;;;;;;;2.00;1.80;;;14.40;99.90;;;;;;5089213;28;20230;-69
2023/08/07 06:58:39;;;;;;;6.30;1.90;;;14.50;99.90;;;;;;5100517;28;20168;-69
2023/08/07 07:01:04;;;;;;;3.90;2.33;;;14.60;99.90;;;;;;5094715;28;20188;-70
2023/08/07 07:03:30;;;;;;;11.30;2.80;;;14.50;99.90;;;;;;5095027;28;20165;-70
2023/08/07 07:05:55;;;;;;;7.27;2.30;;;14.50;99.90;;;;;;5076340;28;20534;-70
2023/08/07 07:08:23;;;;;;;4.40;2.10;;;14.50;99.90;;;;;;5076774;28;20178;-70
2023/08/07 07:10:48;;;;;;;3.63;2.13;;;14.50;99.90;;;;;;5094442;28;20182;-70
2023/08/07 07:13:14;;;;;;;3.83;2.10;;;14.60;99.90;;;;;;5090479;28;20428;-70
2023/08/07 07:15:39;;;;;;;2.70;1.63;;;14.70;99.90;;;;;;5103132;28;20673;-70
2023/08/07 07:18:05;;;;;;;5.00;2.00;;;14.70;99.90;;;;;;5114871;28;20162;-70
2023/08/07 07:20:31;;;;;;;2.67;1.80;;;14.80;99.90;;;;;;5114842;28;20185;-70
2023/08/07 07:22:57;;;;;;;7.30;2.37;;;14.80;99.90;;;;;;5114867;28;20395;-70
2023/08/07 07:25:22;;;;;;;8.93;2.30;;;14.90;99.90;;;;;;5114544;28;20221;-69
2023/08/07 07:27:48;;;;;;;3.63;2.20;;;14.90;99.90;;;;;;5114288;28;20247;-68
2023/08/07 07:30:13;;;;;;;2.10;1.40;;;15.00;99.90;;;;;;5093315;28;20194;-68
2023/08/07 07:32:39;;;;;;;3.07;2.50;;;15.10;99.90;;;;;;5094100;28;20244;-68
2023/08/07 07:35:05;;;;;;;3.70;2.20;;;15.30;99.90;;;;;;5075776;28;20277;-68
2023/08/07 07:37:31;;;;;;;7.10;1.60;;;15.50;99.90;;;;;;5076030;28;20173;-68
2023/08/07 07:39:57;;;;;;;2.53;2.07;;;15.60;99.90;;;;;;5094138;28;20189;-68
2023/08/07 07:42:22;;;;;;;4.83;2.37;;;15.60;99.90;;;;;;5093563;28;21040;-68
2023/08/07 07:44:48;;;;;;;4.57;1.80;;;15.70;99.90;;;;;;5093284;28;20177;-68
2023/08/07 07:47:13;;;;;;;5.07;2.00;;;15.80;99.90;;;;;;5075717;28;20176;-68
2023/08/07 07:49:39;;;;;;;2.87;2.00;;;15.80;99.90;;;;;;5093725;28;20248;-68
2023/08/07 07:52:06;;;;;;;5.27;2.03;;;15.90;99.90;;;;;;5075662;28;20201;-68
2023/08/07 07:54:32;;;;;;;8.63;1.97;;;16.10;99.90;;;;;;5093683;28;20679;-68
2023/08/07 07:56:57;;;;;;;3.33;1.90;;;16.10;99.90;;;;;;5092057;28;20427;-68
2023/08/07 07:59:23;;;;;;;5.70;2.80;;;16.30;99.90;;;;;;5075078;28;20488;-68
2023/08/07 08:01:48;;;;;;;3.33;1.80;;;16.40;99.90;;;;;;5093627;28;20186;-68
2023/08/07 08:04:14;;;;;;;8.53;2.67;;;16.50;99.90;;;;;;5093482;28;20565;-68
2023/08/07 08:06:40;;;;;;;3.40;2.07;;;16.60;99.90;;;;;;5093285;28;20201;-68
2023/08/07 08:09:09;;;;;;;3.90;2.00;;;16.60;99.90;;;;;;5093742;28;20255;-68
2023/08/07 08:11:34;;;;;;;5.67;2.33;;;16.70;99.90;;;;;;5093462;28;20428;-68
2023/08/07 08:14:00;;;;;;;2.20;2.00;;;16.80;99.90;;;;;;5083871;28;20428;-67
2023/08/07 08:16:25;;;;;;;8.60;1.80;;;16.90;99.90;;;;;;5088789;28;20173;-67
2023/08/07 08:18:51;;;;;;;4.63;1.87;;;17.00;99.90;;;;;;5093386;28;20245;-68
2023/08/07 08:21:16;;;;;;;2.37;1.80;;;17.20;99.90;;;;;;5093236;28;20272;-68
2023/08/07 08:23:42;;;;;;;2.77;2.00;;;17.40;99.90;;;;;;5075057;28;20162;-67
2023/08/07 08:26:07;;;;;;;5.50;2.10;;;17.50;99.90;;;;;;5074927;28;20216;-67
2023/08/07 08:28:33;;;;;;;6.37;2.67;;;17.50;99.90;;;;;;5075216;28;20634;-67
2023/08/07 08:30:58;;;;;;;5.97;2.30;;;17.50;99.90;;;;;;5091552;28;20251;-67
2023/08/07 08:33:24;;;;;;;4.00;2.03;;;17.40;99.90;;;;;;5092880;28;20530;-69
2023/08/07 08:35:49;;;;;;;7.60;2.00;;;17.30;99.90;;;;;;5074402;28;20205;-67
2023/08/07 08:38:16;;;;;;;2.07;1.90;;;17.30;99.90;;;;;;5074725;28;20165;-67
2023/08/07 08:40:43;;;;;;;5.33;1.80;;;17.30;99.90;;;;;;5091785;28;20264;-67
2023/08/07 08:43:12;;;;;;;4.40;1.80;;;17.30;99.90;;;;;;5092766;28;20759;-67
2023/08/07 08:45:39;;;;;;;2.53;1.80;;;17.50;99.90;;;;;;5074314;28;20407;-68
2023/08/07 08:48:07;;;;;;;3.33;2.17;;;17.60;99.90;;;;;;5089371;28;20435;-68
2023/08/07 08:50:34;;;;;;;6.37;2.13;;;17.80;99.90;;;;;;5077681;28;20430;-69
2023/08/07 08:53:00;;;;;;;3.63;2.10;;;18.00;99.90;;;;;;5113158;28;20489;-68
2023/08/07 08:55:26;;;;;;;3.87;1.93;;;18.30;99.90;;;;;;5112817;28;20450;-68
2023/08/07 08:57:53;;;;;;;4.43;1.50;;;18.70;99.90;;;;;;5094989;28;20438;-68
2023/08/07 09:00:23;;;;;;;2.03;1.77;;;19.00;99.90;;;;;;5113182;28;20461;-68
2023/08/07 09:02:50;;;;;;;7.80;2.50;;;19.50;99.90;;;;;;5108599;28;20402;-68
2023/08/07 09:05:18;;;;;;;4.73;2.67;;;20.10;99.90;;;;;;5080954;28;20436;-69
2023/08/07 09:07:46;;;;;;;4.20;1.80;;;20.60;99.90;;;;;;5082199;28;21018;-69
2023/08/07 09:10:13;;;;;;;2.90;2.37;;;21.40;99.90;;;;;;5092584;28;20516;-69
2023/08/07 09:12:42;;;;;;;3.73;1.70;;;22.30;99.90;;;;;;5074583;28;20940;-69
2023/08/07 09:15:10;;;;;;;7.50;1.50;;;22.30;99.90;;;;;;5074192;28;20463;-69
2023/08/07 09:17:39;;;;;;;9.03;1.70;;;21.80;99.90;;;;;;5074648;28;20439;-68
2023/08/07 09:20:10;;;;;;;3.27;2.00;;;21.40;99.90;;;;;;5088908;28;20451;-68
2023/08/07 09:22:36;;;;;;;6.17;2.20;;;21.10;99.90;;;;;;5074233;28;20412;-69
2023/08/07 09:25:01;;;;;;;2.00;1.33;;;21.40;99.90;;;;;;5092338;28;20418;-68
2023/08/07 09:27:27;;;;;;;4.97;1.90;;;21.80;99.90;;;;;;5074525;28;20180;-69
2023/08/07 09:29:55;;;;;;;3.70;2.33;;;22.00;99.90;;;;;;5092572;28;20605;-69
2023/08/07 09:32:23;;;;;;;3.50;2.17;;;22.10;99.90;;;;;;5092467;28;20411;-68
2023/08/07 09:34:50;;;;;;;4.80;2.00;;;22.30;99.90;;;;;;5092614;28;20487;-69
2023/08/07 09:37:15;;;;;;;4.80;1.93;;;22.60;99.90;;;;;;5065829;28;20428;-69
2023/08/07 09:39:41;;;;;;;2.70;1.57;;;23.70;99.90;;;;;;5079747;28;20407;-69
2023/08/07 09:42:15;;;;;;;3.50;1.80;;;24.70;99.90;;;;;;5092209;28;20165;-68
2023/08/07 09:44:41;;;;;;;1.93;1.60;;;25.70;99.90;;;;;;5092699;28;20540;-69
2023/08/07 09:47:17;;;;;;;2.67;2.23;;;26.00;99.90;;;;;;5073833;28;20996;-69
2023/08/07 09:49:43;;;;;;;4.70;1.77;;;27.40;99.90;;;;;;5073843;28;20415;-69
2023/08/07 09:52:13;;;;;;;2.30;1.70;;;29.00;96.60;;;;;;5087595;28;20431;-69
2023/08/07 09:54:39;;;;;;;3.93;1.87;;;29.30;80.80;;;;;;5105366;28;20450;-69
2023/08/07 09:57:06;;;;;;;4.83;1.60;;;28.80;77.10;;;;;;5116331;28;20426;-69
2023/08/07 09:59:33;;;;;;;3.87;1.67;;;28.40;75.30;;;;;;5116462;28;20648;-69
2023/08/07 10:02:04;;;;;;;1.50;1.40;;;28.00;74.50;;;;;;5098005;28;20483;-69
2023/08/07 10:04:30;;;;;;;7.50;2.03;;;27.60;75.20;;;;;;5116254;28;20402;-69
2023/08/07 10:06:56;;;;;;;9.77;2.07;;;27.20;73.10;;;;;;5116141;28;20454;-69
2023/08/07 10:09:22;;;;;;;2.80;1.30;;;26.50;74.30;;;;;;5089370;28;20859;-69
2023/08/07 10:11:49;;;;;;;7.77;1.90;;;26.70;79.60;;;;;;5082369;28;20441;-69
2023/08/07 10:14:15;;;;;;;5.43;1.73;;;27.30;80.80;;;;;;5116372;28;20417;-70
2023/08/07 10:16:42;;;;;;;2.10;1.60;;;28.60;79.00;;;;;;5116051;28;20406;-70
2023/08/07 10:19:09;;;;;;;3.27;1.70;;;30.90;76.40;;;;;;5116071;28;20452;-67
2023/08/07 10:21:36;;;;;;;5.90;2.07;;;31.70;66.70;;;;;;5115504;28;20433;-67
2023/08/07 10:24:04;;;;;;;1.83;1.73;;;31.00;57.10;;;;;;5112411;28;20405;-67
2023/08/07 10:26:34;;;;;;;3.20;2.40;;;30.60;58.70;;;;;;5095437;28;20934;-67
2023/08/07 10:29:02;;;;;;;1.70;1.60;;;30.80;56.90;;;;;;5096210;28;20407;-68
2023/08/07 10:31:29;;;;;;;2.40;1.93;;;33.00;57.50;;;;;;5077296;28;20462;-68
2023/08/07 10:33:55;;;;;;;2.47;1.50;;;35.80;52.30;;;;;;5095813;28;20427;-68
2023/08/07 10:36:21;;;;;;;2.17;1.40;;;38.20;46.70;;;;;;5095223;28;20518;-68
2023/08/07 10:38:50;;;;;;;2.53;1.70;;;39.90;41.70;;;;;;5095190;28;20215;-68
2023/08/07 10:41:17;;;;;;;2.70;1.53;;;40.80;39.00;;;;;;5091742;28;20193;-69
2023/08/07 10:43:45;;;;;;;3.60;1.97;;;42.20;38.00;;;;;;5094587;28;20390;-69
2023/08/07 10:46:15;;;;;;;3.20;1.90;;;43.40;36.30;;;;;;5115745;28;20432;-69
2023/08/07 10:48:49;;;;;;;4.23;2.03;;;43.10;33.90;;;;;;5115509;28;20874;-68
2023/08/07 10:51:17;;;;;;;1.97;1.63;;;41.00;32.90;;;;;;5115461;28;20497;-68
2023/08/07 10:53:47;;;;;;;6.43;1.70;;;38.60;34.60;;;;;;5115750;28;20452;-67
2023/08/07 10:56:17;;;;;;;2.80;1.50;;;36.60;35.20;;;;;;5115270;28;20575;-68
2023/08/07 10:58:53;;;;;;;2.43;1.50;;;36.10;35.70;;;;;;5082250;28;20426;-68
2023/08/07 11:01:30;;;;;;;8.20;2.10;;;36.10;37.50;;;;;;5109858;28;20426;-68
2023/08/07 11:03:58;;;;;;;2.50;1.67;;;37.40;36.90;;;;;;5095875;28;20402;-68
2023/08/07 11:06:26;;;;;;;3.00;1.43;;;38.80;36.00;;;;;;5096517;28;20414;-68
2023/08/07 11:08:52;;;;;;;2.37;1.87;;;40.70;35.60;;;;;;5115080;28;20961;-68
2023/08/07 11:11:17;;;;;;;8.10;1.90;;;41.60;34.20;;;;;;5114793;28;20430;-68
2023/08/07 11:13:43;;;;;;;2.07;1.63;;;41.10;31.10;;;;;;5110223;28;20524;-68
2023/08/07 11:16:09;;;;;;;6.57;2.03;;;40.70;31.90;;;;;;5098986;28;20598;-68
2023/08/07 11:18:41;;;;;;;3.90;1.40;;;40.10;32.00;;;;;;5114850;28;20188;-68
2023/08/07 11:21:11;;;;;;;2.57;1.60;;;39.70;32.10;;;;;;5115484;28;20415;-68
2023/08/07 11:23:37;;;;;;;6.50;1.80;;;38.50;32.50;;;;;;5114727;28;20455;-71
2023/08/07 11:26:03;;;;;;;1.93;1.57;;;38.60;33.40;;;;;;5115782;28;20829;-68
2023/08/07 11:28:29;;;;;;;2.33;1.70;;;39.50;32.90;;;;;;5115530;28;20442;-68
2023/08/07 11:30:55;;;;;;;2.23;1.60;;;40.50;32.90;;;;;;5105367;28;20193;-68
2023/08/07 11:33:26;;;;;;;2.70;1.77;;;40.30;31.80;;;;;;5083013;28;20165;-68
2023/08/07 11:35:52;;;;;;;3.00;1.47;;;39.10;30.40;;;;;;5115053;28;20492;-68
2023/08/07 11:38:32;;;;;;;1.80;1.30;;;37.30;32.10;;;;;;5116309;28;20402;-70
2023/08/07 11:40:59;;;;;;;2.53;1.90;;;36.00;33.70;;;;;;5097828;28;20935;-70
2023/08/07 11:43:27;;;;;;;2.43;1.60;;;36.90;34.20;;;;;;5115170;28;20394;-68
2023/08/07 11:45:53;;;;;;;3.00;1.60;;;38.70;34.30;;;;;;5097063;28;20426;-68
2023/08/07 11:48:18;;;;;;;2.10;1.53;;;40.50;33.30;;;;;;5098378;28;20423;-68
2023/08/07 11:50:44;;;;;;;2.10;1.87;;;41.70;31.30;;;;;;5077171;28;20551;-69
2023/08/07 11:53:10;;;;;;;4.60;2.10;;;42.20;31.00;;;;;;5096474;28;20177;-69
2023/08/07 11:55:36;;;;;;;6.00;2.43;;;43.10;29.70;;;;;;5077815;28;20455;-69
2023/08/07 11:58:04;;;;;;;1.90;1.70;;;43.90;29.00;;;;;;5096897;28;20453;-69
2023/08/07 12:00:30;;;;;;;1.87;1.67;;;44.50;29.40;;;;;;5095959;28;20213;-69
2023/08/07 12:02:56;;;;;;;2.47;1.90;;;43.40;28.50;;;;;;5095767;28;20378;-68
2023/08/07 12:05:21;;;;;;;2.60;2.30;;;42.10;28.40;;;;;;5083126;28;20190;-69
2023/08/07 12:07:48;;;;;;;2.90;1.43;;;42.30;29.40;;;;;;5069433;28;20208;-69
2023/08/07 12:10:14;;;;;;;1.63;1.53;;;43.00;28.50;;;;;;5084419;28;20196;-69
2023/08/07 12:12:39;;;;;;;2.50;1.90;;;43.60;28.50;;;;;;5095772;28;20396;-69
2023/08/07 12:15:09;;;;;;;4.30;1.73;;;43.60;28.00;;;;;;5077563;28;20165;-69
2023/08/07 12:17:38;;;;;;;3.17;2.10;;;41.70;27.60;;;;;;5095756;28;20197;-69
2023/08/07 12:20:10;;;;;;;2.23;1.60;;;40.90;29.40;;;;;;5076628;28;21091;-68
2023/08/07 12:22:36;;;;;;;2.03;1.83;;;41.00;30.00;;;;;;5100974;28;20418;-68
2023/08/07 12:25:02;;;;;;;2.00;1.80;;;40.10;29.30;;;;;;5094012;28;20801;-68
2023/08/07 12:27:27;;;;;;;4.73;1.70;;;38.60;29.60;;;;;;5076518;28;20180;-68
2023/08/07 12:29:53;;;;;;;2.83;2.00;;;36.80;30.30;;;;;;5079036;28;20400;-68
2023/08/07 12:32:19;;;;;;;1.50;1.40;;;35.10;32.00;;;;;;5097688;28;20157;-68
2023/08/07 12:34:44;;;;;;;4.27;1.87;;;34.50;34.40;;;;;;5096449;28;20180;-68
2023/08/07 12:37:10;;;;;;;3.93;1.70;;;35.80;36.20;;;;;;5091696;28;20537;-68
2023/08/07 12:39:35;;;;;;;4.20;2.13;;;37.50;34.60;;;;;;5093891;28;20238;-68
2023/08/07 12:42:01;;;;;;;3.97;2.17;;;39.20;32.80;;;;;;5116576;28;20189;-68